sensor_id;sensor_type;location;lat;lon;timestamp;P1;durP1;ratioP1;P2;durP2;ratioP2
51883;SDS011;37915;53.254;6.598;2023-04-25T00:00:35;17.90;;;4.05;;
51883;SDS011;37915;53.254;6.598;2023-04-25T00:03:00;16.50;;;4.10;;
51883;SDS011;37915;53.254;6.598;2023-04-25T00:05:26;11.23;;;4.15;;
51883;SDS011;37915;53.254;6.598;2023-04-25T00:07:52;22.40;;;4.57;;
51883;SDS011;37915;53.254;6.598;2023-04-25T00:10:18;17.55;;;4.22;;
51883;SDS011;37915;53.254;6.598;2023-04-25T00:12:45;24.00;;;4.65;;
51883;SDS011;37915;53.254;6.598;2023-04-25T00:15:11;17.48;;;4.43;;
51883;SDS011;37915;53.254;6.598;2023-04-25T00:17:37;13.50;;;3.83;;
51883;SDS011;37915;53.254;6.598;2023-04-25T00:20:03;20.55;;;5.05;;
51883;SDS011;37915;53.254;6.598;2023-04-25T00:22:30;20.67;;;4.55;;
51883;SDS011;37915;53.254;6.598;2023-04-25T00:24:56;15.80;;;3.70;;
51883;SDS011;37915;53.254;6.598;2023-04-25T00:27:25;12.45;;;3.35;;
51883;SDS011;37915;53.254;6.598;2023-04-25T00:29:51;15.65;;;3.72;;
51883;SDS011;37915;53.254;6.598;2023-04-25T00:32:16;13.38;;;3.00;;
51883;SDS011;37915;53.254;6.598;2023-04-25T00:34:42;8.32;;;2.72;;
51883;SDS011;37915;53.254;6.598;2023-04-25T00:37:08;11.00;;;3.70;;
51883;SDS011;37915;53.254;6.598;2023-04-25T00:39:33;15.63;;;2.83;;
51883;SDS011;37915;53.254;6.598;2023-04-25T00:41:59;12.93;;;3.28;;
51883;SDS011;37915;53.254;6.598;2023-04-25T00:44:26;15.65;;;3.00;;
51883;SDS011;37915;53.254;6.598;2023-04-25T00:46:54;16.83;;;3.42;;
51883;SDS011;37915;53.254;6.598;2023-04-25T00:49:20;11.70;;;3.05;;
51883;SDS011;37915;53.254;6.598;2023-04-25T00:51:46;13.45;;;3.35;;
51883;SDS011;37915;53.254;6.598;2023-04-25T00:54:12;13.95;;;2.97;;
51883;SDS011;37915;53.254;6.598;2023-04-25T00:56:38;14.38;;;3.83;;
51883;SDS011;37915;53.254;6.598;2023-04-25T00:59:04;9.55;;;2.67;;
51883;SDS011;37915;53.254;6.598;2023-04-25T01:01:31;10.18;;;3.10;;
51883;SDS011;37915;53.254;6.598;2023-04-25T01:03:58;14.77;;;3.00;;
51883;SDS011;37915;53.254;6.598;2023-04-25T01:06:24;12.25;;;2.85;;
51883;SDS011;37915;53.254;6.598;2023-04-25T01:08:51;11.60;;;2.83;;
51883;SDS011;37915;53.254;6.598;2023-04-25T01:11:17;10.70;;;2.72;;
51883;SDS011;37915;53.254;6.598;2023-04-25T01:13:42;12.68;;;2.60;;
51883;SDS011;37915;53.254;6.598;2023-04-25T01:16:08;11.40;;;3.00;;
51883;SDS011;37915;53.254;6.598;2023-04-25T01:18:34;9.45;;;3.13;;
51883;SDS011;37915;53.254;6.598;2023-04-25T01:21:08;7.93;;;2.78;;
51883;SDS011;37915;53.254;6.598;2023-04-25T01:23:35;12.32;;;3.25;;
51883;SDS011;37915;53.254;6.598;2023-04-25T01:26:05;16.75;;;3.80;;
51883;SDS011;37915;53.254;6.598;2023-04-25T01:28:32;7.93;;;2.45;;
51883;SDS011;37915;53.254;6.598;2023-04-25T01:30:58;13.02;;;2.67;;
51883;SDS011;37915;53.254;6.598;2023-04-25T01:33:24;10.35;;;3.25;;
51883;SDS011;37915;53.254;6.598;2023-04-25T01:35:50;12.80;;;3.20;;
51883;SDS011;37915;53.254;6.598;2023-04-25T01:38:16;13.32;;;3.55;;
51883;SDS011;37915;53.254;6.598;2023-04-25T01:40:42;13.43;;;3.22;;
51883;SDS011;37915;53.254;6.598;2023-04-25T01:43:10;11.25;;;2.75;;
51883;SDS011;37915;53.254;6.598;2023-04-25T01:45:40;10.10;;;2.83;;
51883;SDS011;37915;53.254;6.598;2023-04-25T01:48:07;10.20;;;3.50;;
51883;SDS011;37915;53.254;6.598;2023-04-25T01:50:33;13.73;;;2.80;;
51883;SDS011;37915;53.254;6.598;2023-04-25T01:52:59;17.92;;;3.42;;
51883;SDS011;37915;53.254;6.598;2023-04-25T01:55:26;18.45;;;3.63;;
51883;SDS011;37915;53.254;6.598;2023-04-25T01:57:52;9.82;;;3.22;;
51883;SDS011;37915;53.254;6.598;2023-04-25T02:00:18;15.13;;;3.22;;
51883;SDS011;37915;53.254;6.598;2023-04-25T02:02:44;10.27;;;2.58;;
51883;SDS011;37915;53.254;6.598;2023-04-25T02:05:09;12.32;;;3.25;;
51883;SDS011;37915;53.254;6.598;2023-04-25T02:07:35;29.08;;;4.60;;
51883;SDS011;37915;53.254;6.598;2023-04-25T02:10:01;12.73;;;3.55;;
51883;SDS011;37915;53.254;6.598;2023-04-25T02:12:27;15.25;;;3.08;;
51883;SDS011;37915;53.254;6.598;2023-04-25T02:14:53;13.93;;;2.95;;
51883;SDS011;37915;53.254;6.598;2023-04-25T02:17:19;14.88;;;3.90;;
51883;SDS011;37915;53.254;6.598;2023-04-25T02:19:46;18.88;;;3.92;;
51883;SDS011;37915;53.254;6.598;2023-04-25T02:22:12;13.15;;;3.33;;
51883;SDS011;37915;53.254;6.598;2023-04-25T02:24:38;13.52;;;3.70;;
51883;SDS011;37915;53.254;6.598;2023-04-25T02:27:04;13.68;;;3.67;;
51883;SDS011;37915;53.254;6.598;2023-04-25T02:29:30;10.25;;;3.00;;
51883;SDS011;37915;53.254;6.598;2023-04-25T02:31:56;16.35;;;3.33;;
51883;SDS011;37915;53.254;6.598;2023-04-25T02:34:21;14.90;;;3.38;;
51883;SDS011;37915;53.254;6.598;2023-04-25T02:36:48;16.00;;;3.00;;
51883;SDS011;37915;53.254;6.598;2023-04-25T02:39:16;13.10;;;2.92;;
51883;SDS011;37915;53.254;6.598;2023-04-25T02:41:42;12.02;;;3.65;;
51883;SDS011;37915;53.254;6.598;2023-04-25T02:44:08;10.15;;;2.97;;
51883;SDS011;37915;53.254;6.598;2023-04-25T02:46:33;9.70;;;2.40;;
51883;SDS011;37915;53.254;6.598;2023-04-25T02:48:59;9.52;;;2.90;;
51883;SDS011;37915;53.254;6.598;2023-04-25T02:51:24;9.50;;;2.20;;
51883;SDS011;37915;53.254;6.598;2023-04-25T02:53:51;7.93;;;2.60;;
51883;SDS011;37915;53.254;6.598;2023-04-25T02:56:17;9.05;;;2.67;;
51883;SDS011;37915;53.254;6.598;2023-04-25T02:58:42;9.68;;;2.65;;
51883;SDS011;37915;53.254;6.598;2023-04-25T03:01:08;14.02;;;2.80;;
51883;SDS011;37915;53.254;6.598;2023-04-25T03:03:34;7.53;;;2.40;;
51883;SDS011;37915;53.254;6.598;2023-04-25T03:06:00;11.50;;;2.80;;
51883;SDS011;37915;53.254;6.598;2023-04-25T03:08:25;10.65;;;2.75;;
51883;SDS011;37915;53.254;6.598;2023-04-25T03:10:54;13.35;;;3.55;;
51883;SDS011;37915;53.254;6.598;2023-04-25T03:13:20;11.43;;;2.78;;
51883;SDS011;37915;53.254;6.598;2023-04-25T03:15:46;9.73;;;2.40;;
51883;SDS011;37915;53.254;6.598;2023-04-25T03:18:12;14.35;;;3.15;;
51883;SDS011;37915;53.254;6.598;2023-04-25T03:20:37;12.18;;;3.53;;
51883;SDS011;37915;53.254;6.598;2023-04-25T03:23:04;12.30;;;3.65;;
51883;SDS011;37915;53.254;6.598;2023-04-25T03:25:30;7.70;;;2.63;;
51883;SDS011;37915;53.254;6.598;2023-04-25T03:27:56;10.95;;;2.60;;
51883;SDS011;37915;53.254;6.598;2023-04-25T03:30:22;14.02;;;2.70;;
51883;SDS011;37915;53.254;6.598;2023-04-25T03:32:47;11.77;;;2.67;;
51883;SDS011;37915;53.254;6.598;2023-04-25T03:35:13;12.07;;;2.60;;
51883;SDS011;37915;53.254;6.598;2023-04-25T03:37:38;12.80;;;3.55;;
51883;SDS011;37915;53.254;6.598;2023-04-25T03:40:05;12.15;;;3.55;;
51883;SDS011;37915;53.254;6.598;2023-04-25T03:42:31;10.15;;;2.85;;
51883;SDS011;37915;53.254;6.598;2023-04-25T03:44:57;10.70;;;2.75;;
51883;SDS011;37915;53.254;6.598;2023-04-25T03:47:23;14.70;;;2.88;;
51883;SDS011;37915;53.254;6.598;2023-04-25T03:49:48;13.43;;;3.10;;
51883;SDS011;37915;53.254;6.598;2023-04-25T03:52:16;10.48;;;2.55;;
51883;SDS011;37915;53.254;6.598;2023-04-25T03:54:43;9.80;;;2.55;;
51883;SDS011;37915;53.254;6.598;2023-04-25T03:57:08;11.25;;;3.17;;
51883;SDS011;37915;53.254;6.598;2023-04-25T03:59:35;8.98;;;2.47;;
51883;SDS011;37915;53.254;6.598;2023-04-25T04:02:01;8.68;;;2.45;;
51883;SDS011;37915;53.254;6.598;2023-04-25T04:04:26;13.13;;;2.97;;
51883;SDS011;37915;53.254;6.598;2023-04-25T04:06:52;9.63;;;2.28;;
51883;SDS011;37915;53.254;6.598;2023-04-25T04:09:18;9.32;;;3.50;;
51883;SDS011;37915;53.254;6.598;2023-04-25T04:11:44;14.48;;;3.20;;
51883;SDS011;37915;53.254;6.598;2023-04-25T04:14:10;13.80;;;2.83;;
51883;SDS011;37915;53.254;6.598;2023-04-25T04:16:35;10.07;;;2.78;;
51883;SDS011;37915;53.254;6.598;2023-04-25T04:19:01;10.30;;;2.80;;
51883;SDS011;37915;53.254;6.598;2023-04-25T04:21:27;8.02;;;2.38;;
51883;SDS011;37915;53.254;6.598;2023-04-25T04:23:53;9.35;;;2.22;;
51883;SDS011;37915;53.254;6.598;2023-04-25T04:26:19;9.60;;;2.40;;
51883;SDS011;37915;53.254;6.598;2023-04-25T04:28:48;10.68;;;2.60;;
51883;SDS011;37915;53.254;6.598;2023-04-25T04:31:19;10.27;;;2.95;;
51883;SDS011;37915;53.254;6.598;2023-04-25T04:33:46;12.95;;;2.63;;
51883;SDS011;37915;53.254;6.598;2023-04-25T04:36:12;10.77;;;2.88;;
51883;SDS011;37915;53.254;6.598;2023-04-25T04:38:38;9.48;;;2.42;;
51883;SDS011;37915;53.254;6.598;2023-04-25T04:41:05;12.30;;;2.63;;
51883;SDS011;37915;53.254;6.598;2023-04-25T04:43:31;6.28;;;2.40;;
51883;SDS011;37915;53.254;6.598;2023-04-25T04:45:58;7.30;;;1.95;;
51883;SDS011;37915;53.254;6.598;2023-04-25T04:48:25;9.85;;;2.70;;
51883;SDS011;37915;53.254;6.598;2023-04-25T04:50:51;11.02;;;2.60;;
51883;SDS011;37915;53.254;6.598;2023-04-25T04:53:17;16.08;;;3.85;;
51883;SDS011;37915;53.254;6.598;2023-04-25T04:55:43;12.40;;;2.67;;
51883;SDS011;37915;53.254;6.598;2023-04-25T04:58:09;10.65;;;2.92;;
51883;SDS011;37915;53.254;6.598;2023-04-25T05:00:34;9.90;;;2.22;;
51883;SDS011;37915;53.254;6.598;2023-04-25T05:03:00;8.13;;;2.38;;
51883;SDS011;37915;53.254;6.598;2023-04-25T05:05:26;12.70;;;2.17;;
51883;SDS011;37915;53.254;6.598;2023-04-25T05:07:52;7.78;;;1.88;;
51883;SDS011;37915;53.254;6.598;2023-04-25T05:10:18;7.85;;;1.83;;
51883;SDS011;37915;53.254;6.598;2023-04-25T05:12:44;4.65;;;1.80;;
51883;SDS011;37915;53.254;6.598;2023-04-25T05:15:10;6.88;;;1.65;;
51883;SDS011;37915;53.254;6.598;2023-04-25T05:17:36;6.45;;;1.33;;
51883;SDS011;37915;53.254;6.598;2023-04-25T05:20:02;5.13;;;1.33;;
51883;SDS011;37915;53.254;6.598;2023-04-25T05:22:30;3.30;;;1.38;;
51883;SDS011;37915;53.254;6.598;2023-04-25T05:24:56;3.05;;;1.20;;
51883;SDS011;37915;53.254;6.598;2023-04-25T05:27:22;5.38;;;1.77;;
51883;SDS011;37915;53.254;6.598;2023-04-25T05:29:48;4.75;;;1.45;;
51883;SDS011;37915;53.254;6.598;2023-04-25T05:32:13;4.55;;;1.98;;
51883;SDS011;37915;53.254;6.598;2023-04-25T05:34:39;5.68;;;1.48;;
51883;SDS011;37915;53.254;6.598;2023-04-25T05:37:05;5.50;;;1.70;;
51883;SDS011;37915;53.254;6.598;2023-04-25T05:39:31;4.25;;;1.60;;
51883;SDS011;37915;53.254;6.598;2023-04-25T05:41:57;7.45;;;1.58;;
51883;SDS011;37915;53.254;6.598;2023-04-25T05:44:22;9.35;;;2.00;;
51883;SDS011;37915;53.254;6.598;2023-04-25T05:46:48;5.30;;;1.45;;
51883;SDS011;37915;53.254;6.598;2023-04-25T05:49:14;5.97;;;1.65;;
51883;SDS011;37915;53.254;6.598;2023-04-25T05:51:39;8.38;;;2.42;;
51883;SDS011;37915;53.254;6.598;2023-04-25T05:54:05;6.78;;;1.65;;
51883;SDS011;37915;53.254;6.598;2023-04-25T05:56:31;7.45;;;2.20;;
51883;SDS011;37915;53.254;6.598;2023-04-25T05:58:56;17.98;;;4.45;;
51883;SDS011;37915;53.254;6.598;2023-04-25T06:01:22;11.40;;;3.28;;
51883;SDS011;37915;53.254;6.598;2023-04-25T06:03:48;7.22;;;2.30;;
51883;SDS011;37915;53.254;6.598;2023-04-25T06:06:14;15.77;;;2.53;;
51883;SDS011;37915;53.254;6.598;2023-04-25T06:08:40;7.82;;;1.85;;
51883;SDS011;37915;53.254;6.598;2023-04-25T06:11:06;7.57;;;2.00;;
51883;SDS011;37915;53.254;6.598;2023-04-25T06:13:31;3.88;;;1.30;;
51883;SDS011;37915;53.254;6.598;2023-04-25T06:15:57;5.55;;;1.40;;
51883;SDS011;37915;53.254;6.598;2023-04-25T06:18:23;5.50;;;1.20;;
51883;SDS011;37915;53.254;6.598;2023-04-25T06:20:49;5.93;;;1.45;;
51883;SDS011;37915;53.254;6.598;2023-04-25T06:23:14;5.13;;;1.52;;
51883;SDS011;37915;53.254;6.598;2023-04-25T06:25:40;4.60;;;1.50;;
51883;SDS011;37915;53.254;6.598;2023-04-25T06:28:05;5.68;;;1.30;;
51883;SDS011;37915;53.254;6.598;2023-04-25T06:30:31;7.28;;;1.60;;
51883;SDS011;37915;53.254;6.598;2023-04-25T06:32:57;6.88;;;1.70;;
51883;SDS011;37915;53.254;6.598;2023-04-25T06:35:22;7.22;;;1.80;;
51883;SDS011;37915;53.254;6.598;2023-04-25T06:37:48;7.72;;;2.33;;
51883;SDS011;37915;53.254;6.598;2023-04-25T06:40:14;10.82;;;1.83;;
51883;SDS011;37915;53.254;6.598;2023-04-25T06:42:40;8.23;;;2.03;;
51883;SDS011;37915;53.254;6.598;2023-04-25T06:45:05;8.95;;;1.85;;
51883;SDS011;37915;53.254;6.598;2023-04-25T06:47:31;8.70;;;2.30;;
51883;SDS011;37915;53.254;6.598;2023-04-25T06:49:57;7.18;;;1.85;;
51883;SDS011;37915;53.254;6.598;2023-04-25T06:52:23;13.50;;;2.60;;
51883;SDS011;37915;53.254;6.598;2023-04-25T06:54:48;10.63;;;2.03;;
51883;SDS011;37915;53.254;6.598;2023-04-25T06:57:14;6.50;;;1.80;;
51883;SDS011;37915;53.254;6.598;2023-04-25T06:59:40;7.93;;;1.58;;
51883;SDS011;37915;53.254;6.598;2023-04-25T07:02:06;6.05;;;1.60;;
51883;SDS011;37915;53.254;6.598;2023-04-25T07:04:31;9.68;;;1.92;;
51883;SDS011;37915;53.254;6.598;2023-04-25T07:06:57;10.48;;;1.90;;
51883;SDS011;37915;53.254;6.598;2023-04-25T07:09:23;9.82;;;2.38;;
51883;SDS011;37915;53.254;6.598;2023-04-25T07:11:49;8.35;;;2.35;;
51883;SDS011;37915;53.254;6.598;2023-04-25T07:14:14;10.52;;;1.88;;
51883;SDS011;37915;53.254;6.598;2023-04-25T07:16:40;9.73;;;2.00;;
51883;SDS011;37915;53.254;6.598;2023-04-25T07:19:06;7.97;;;1.98;;
51883;SDS011;37915;53.254;6.598;2023-04-25T07:21:32;8.70;;;1.50;;
51883;SDS011;37915;53.254;6.598;2023-04-25T07:23:58;8.68;;;1.92;;
51883;SDS011;37915;53.254;6.598;2023-04-25T07:26:23;7.40;;;1.85;;
51883;SDS011;37915;53.254;6.598;2023-04-25T07:28:49;5.35;;;1.42;;
51883;SDS011;37915;53.254;6.598;2023-04-25T07:31:19;11.20;;;1.98;;
51883;SDS011;37915;53.254;6.598;2023-04-25T07:33:44;8.82;;;1.83;;
51883;SDS011;37915;53.254;6.598;2023-04-25T07:36:11;5.07;;;1.25;;
51883;SDS011;37915;53.254;6.598;2023-04-25T07:38:37;6.00;;;1.83;;
51883;SDS011;37915;53.254;6.598;2023-04-25T07:41:03;8.55;;;2.15;;
51883;SDS011;37915;53.254;6.598;2023-04-25T07:43:29;7.00;;;2.50;;
51883;SDS011;37915;53.254;6.598;2023-04-25T07:45:55;11.63;;;1.90;;
51883;SDS011;37915;53.254;6.598;2023-04-25T07:48:21;8.65;;;1.75;;
51883;SDS011;37915;53.254;6.598;2023-04-25T07:50:47;4.88;;;1.52;;
51883;SDS011;37915;53.254;6.598;2023-04-25T07:53:13;13.88;;;1.77;;
51883;SDS011;37915;53.254;6.598;2023-04-25T07:55:39;9.90;;;1.60;;
51883;SDS011;37915;53.254;6.598;2023-04-25T07:58:05;4.88;;;1.55;;
51883;SDS011;37915;53.254;6.598;2023-04-25T08:00:32;4.70;;;1.45;;
51883;SDS011;37915;53.254;6.598;2023-04-25T08:02:57;5.43;;;1.70;;
51883;SDS011;37915;53.254;6.598;2023-04-25T08:05:23;9.43;;;1.90;;
51883;SDS011;37915;53.254;6.598;2023-04-25T08:07:49;11.07;;;1.75;;
51883;SDS011;37915;53.254;6.598;2023-04-25T08:10:15;3.45;;;1.15;;
51883;SDS011;37915;53.254;6.598;2023-04-25T08:12:40;4.22;;;1.10;;
51883;SDS011;37915;53.254;6.598;2023-04-25T08:15:06;5.22;;;1.30;;
51883;SDS011;37915;53.254;6.598;2023-04-25T08:17:33;5.45;;;1.20;;
51883;SDS011;37915;53.254;6.598;2023-04-25T08:19:58;6.47;;;1.60;;
51883;SDS011;37915;53.254;6.598;2023-04-25T08:22:24;4.53;;;1.33;;
51883;SDS011;37915;53.254;6.598;2023-04-25T08:24:50;5.47;;;1.23;;
51883;SDS011;37915;53.254;6.598;2023-04-25T08:27:16;8.13;;;1.60;;
51883;SDS011;37915;53.254;6.598;2023-04-25T08:29:43;7.82;;;1.60;;
51883;SDS011;37915;53.254;6.598;2023-04-25T08:32:08;7.82;;;1.60;;
51883;SDS011;37915;53.254;6.598;2023-04-25T08:34:34;7.30;;;1.20;;
51883;SDS011;37915;53.254;6.598;2023-04-25T08:37:01;4.57;;;1.15;;
51883;SDS011;37915;53.254;6.598;2023-04-25T08:39:29;3.80;;;1.52;;
51883;SDS011;37915;53.254;6.598;2023-04-25T08:41:54;3.65;;;1.20;;
51883;SDS011;37915;53.254;6.598;2023-04-25T08:44:21;3.08;;;1.13;;
51883;SDS011;37915;53.254;6.598;2023-04-25T08:46:48;7.68;;;1.40;;
51883;SDS011;37915;53.254;6.598;2023-04-25T08:49:15;4.70;;;1.40;;
51883;SDS011;37915;53.254;6.598;2023-04-25T08:51:44;5.45;;;1.48;;
51883;SDS011;37915;53.254;6.598;2023-04-25T08:54:12;7.25;;;1.60;;
51883;SDS011;37915;53.254;6.598;2023-04-25T08:56:44;7.25;;;1.80;;
51883;SDS011;37915;53.254;6.598;2023-04-25T08:59:12;5.65;;;1.52;;
51883;SDS011;37915;53.254;6.598;2023-04-25T09:01:38;4.18;;;1.63;;
51883;SDS011;37915;53.254;6.598;2023-04-25T09:04:04;4.97;;;1.48;;
51883;SDS011;37915;53.254;6.598;2023-04-25T09:06:30;5.97;;;1.85;;
51883;SDS011;37915;53.254;6.598;2023-04-25T09:09:03;7.03;;;1.50;;
51883;SDS011;37915;53.254;6.598;2023-04-25T09:19:21;5.82;;;1.70;;
51883;SDS011;37915;53.254;6.598;2023-04-25T09:21:48;10.25;;;2.30;;
51883;SDS011;37915;53.254;6.598;2023-04-25T09:24:15;5.88;;;1.60;;
51883;SDS011;37915;53.254;6.598;2023-04-25T09:26:40;4.25;;;1.27;;
51883;SDS011;37915;53.254;6.598;2023-04-25T09:29:06;4.55;;;1.65;;
51883;SDS011;37915;53.254;6.598;2023-04-25T09:31:32;7.00;;;1.50;;
51883;SDS011;37915;53.254;6.598;2023-04-25T09:33:59;4.97;;;1.35;;
51883;SDS011;37915;53.254;6.598;2023-04-25T09:36:26;7.75;;;1.70;;
51883;SDS011;37915;53.254;6.598;2023-04-25T09:38:54;7.93;;;2.28;;
51883;SDS011;37915;53.254;6.598;2023-04-25T09:41:23;12.23;;;2.25;;
51883;SDS011;37915;53.254;6.598;2023-04-25T09:43:49;8.23;;;1.67;;
51883;SDS011;37915;53.254;6.598;2023-04-25T09:46:15;7.05;;;1.85;;
51883;SDS011;37915;53.254;6.598;2023-04-25T09:48:49;7.38;;;1.73;;
51883;SDS011;37915;53.254;6.598;2023-04-25T09:51:16;9.85;;;2.17;;
51883;SDS011;37915;53.254;6.598;2023-04-25T09:53:42;7.45;;;2.25;;
51883;SDS011;37915;53.254;6.598;2023-04-25T09:56:11;8.10;;;1.77;;
51883;SDS011;37915;53.254;6.598;2023-04-25T09:58:39;8.23;;;1.90;;
51883;SDS011;37915;53.254;6.598;2023-04-25T10:01:09;5.18;;;2.00;;
51883;SDS011;37915;53.254;6.598;2023-04-25T10:03:38;9.90;;;2.50;;
51883;SDS011;37915;53.254;6.598;2023-04-25T10:06:09;6.28;;;1.90;;
51883;SDS011;37915;53.254;6.598;2023-04-25T10:08:39;10.20;;;2.08;;
51883;SDS011;37915;53.254;6.598;2023-04-25T10:11:07;8.10;;;1.75;;
51883;SDS011;37915;53.254;6.598;2023-04-25T10:13:34;5.97;;;1.35;;
51883;SDS011;37915;53.254;6.598;2023-04-25T10:16:01;5.75;;;1.65;;
51883;SDS011;37915;53.254;6.598;2023-04-25T10:18:28;5.00;;;1.30;;
51883;SDS011;37915;53.254;6.598;2023-04-25T10:20:58;7.88;;;1.58;;
51883;SDS011;37915;53.254;6.598;2023-04-25T10:23:25;10.07;;;2.25;;
51883;SDS011;37915;53.254;6.598;2023-04-25T10:25:52;6.97;;;2.38;;
51883;SDS011;37915;53.254;6.598;2023-04-25T10:28:19;7.40;;;1.98;;
51883;SDS011;37915;53.254;6.598;2023-04-25T10:31:04;7.85;;;1.73;;
51883;SDS011;37915;53.254;6.598;2023-04-25T10:33:36;9.05;;;1.85;;
51883;SDS011;37915;53.254;6.598;2023-04-25T10:36:12;6.55;;;1.88;;
51883;SDS011;37915;53.254;6.598;2023-04-25T10:38:40;10.50;;;2.35;;
51883;SDS011;37915;53.254;6.598;2023-04-25T10:41:08;8.07;;;2.50;;
51883;SDS011;37915;53.254;6.598;2023-04-25T10:43:39;6.20;;;2.00;;
51883;SDS011;37915;53.254;6.598;2023-04-25T10:48:51;6.53;;;1.52;;
51883;SDS011;37915;53.254;6.598;2023-04-25T10:56:24;6.30;;;2.00;;
51883;SDS011;37915;53.254;6.598;2023-04-25T10:59:11;7.15;;;2.15;;
51883;SDS011;37915;53.254;6.598;2023-04-25T11:01:40;8.88;;;1.65;;
51883;SDS011;37915;53.254;6.598;2023-04-25T11:04:19;7.40;;;1.83;;
51883;SDS011;37915;53.254;6.598;2023-04-25T11:07:03;8.80;;;2.30;;
51883;SDS011;37915;53.254;6.598;2023-04-25T11:09:36;7.03;;;1.88;;
51883;SDS011;37915;53.254;6.598;2023-04-25T11:12:06;5.55;;;1.50;;
51883;SDS011;37915;53.254;6.598;2023-04-25T11:14:32;4.65;;;1.55;;
51883;SDS011;37915;53.254;6.598;2023-04-25T11:16:58;5.53;;;1.45;;
51883;SDS011;37915;53.254;6.598;2023-04-25T11:19:26;6.57;;;1.73;;
51883;SDS011;37915;53.254;6.598;2023-04-25T11:21:56;6.63;;;2.05;;
51883;SDS011;37915;53.254;6.598;2023-04-25T11:24:30;8.93;;;2.13;;
51883;SDS011;37915;53.254;6.598;2023-04-25T11:27:02;7.45;;;2.08;;
51883;SDS011;37915;53.254;6.598;2023-04-25T11:29:29;8.95;;;2.25;;
51883;SDS011;37915;53.254;6.598;2023-04-25T11:31:56;7.75;;;1.85;;
51883;SDS011;37915;53.254;6.598;2023-04-25T11:34:26;9.30;;;2.03;;
51883;SDS011;37915;53.254;6.598;2023-04-25T11:36:55;6.68;;;1.60;;
51883;SDS011;37915;53.254;6.598;2023-04-25T11:39:21;5.53;;;1.40;;
51883;SDS011;37915;53.254;6.598;2023-04-25T11:41:48;4.47;;;1.13;;
51883;SDS011;37915;53.254;6.598;2023-04-25T11:44:15;11.63;;;1.85;;
51883;SDS011;37915;53.254;6.598;2023-04-25T11:46:42;8.88;;;2.25;;
51883;SDS011;37915;53.254;6.598;2023-04-25T11:49:08;6.65;;;1.50;;
51883;SDS011;37915;53.254;6.598;2023-04-25T11:51:38;8.60;;;2.03;;
51883;SDS011;37915;53.254;6.598;2023-04-25T11:54:10;7.35;;;1.52;;
51883;SDS011;37915;53.254;6.598;2023-04-25T11:56:37;8.50;;;1.80;;
51883;SDS011;37915;53.254;6.598;2023-04-25T11:59:07;8.05;;;1.95;;
51883;SDS011;37915;53.254;6.598;2023-04-25T12:01:34;9.27;;;1.90;;
51883;SDS011;37915;53.254;6.598;2023-04-25T12:04:23;6.53;;;1.90;;
51883;SDS011;37915;53.254;6.598;2023-04-25T12:06:51;7.95;;;1.90;;
51883;SDS011;37915;53.254;6.598;2023-04-25T12:09:36;10.55;;;1.90;;
51883;SDS011;37915;53.254;6.598;2023-04-25T12:12:02;7.35;;;1.92;;
51883;SDS011;37915;53.254;6.598;2023-04-25T12:14:28;11.38;;;2.00;;
51883;SDS011;37915;53.254;6.598;2023-04-25T12:16:56;11.02;;;1.70;;
51883;SDS011;37915;53.254;6.598;2023-04-25T12:19:23;7.82;;;1.52;;
51883;SDS011;37915;53.254;6.598;2023-04-25T12:21:49;8.35;;;1.67;;
51883;SDS011;37915;53.254;6.598;2023-04-25T12:24:23;8.85;;;1.98;;
51883;SDS011;37915;53.254;6.598;2023-04-25T12:27:03;7.97;;;1.90;;
51883;SDS011;37915;53.254;6.598;2023-04-25T12:29:35;9.13;;;1.83;;
51883;SDS011;37915;53.254;6.598;2023-04-25T12:32:01;4.10;;;1.42;;
51883;SDS011;37915;53.254;6.598;2023-04-25T12:34:27;7.25;;;1.45;;
51883;SDS011;37915;53.254;6.598;2023-04-25T12:36:52;6.25;;;1.65;;
51883;SDS011;37915;53.254;6.598;2023-04-25T12:39:23;6.78;;;1.88;;
51883;SDS011;37915;53.254;6.598;2023-04-25T12:41:52;5.38;;;1.70;;
51883;SDS011;37915;53.254;6.598;2023-04-25T12:44:21;5.45;;;1.70;;
51883;SDS011;37915;53.254;6.598;2023-04-25T12:46:47;6.72;;;2.22;;
51883;SDS011;37915;53.254;6.598;2023-04-25T12:49:13;8.52;;;1.63;;
51883;SDS011;37915;53.254;6.598;2023-04-25T12:51:39;4.00;;;1.20;;
51883;SDS011;37915;53.254;6.598;2023-04-25T12:54:06;6.07;;;1.58;;
51883;SDS011;37915;53.254;6.598;2023-04-25T12:56:33;8.07;;;1.58;;
51883;SDS011;37915;53.254;6.598;2023-04-25T12:59:00;6.53;;;1.70;;
51883;SDS011;37915;53.254;6.598;2023-04-25T13:01:27;7.97;;;2.00;;
51883;SDS011;37915;53.254;6.598;2023-04-25T13:03:54;9.57;;;2.78;;
51883;SDS011;37915;53.254;6.598;2023-04-25T13:06:23;10.70;;;2.35;;
51883;SDS011;37915;53.254;6.598;2023-04-25T13:08:51;8.50;;;1.70;;
51883;SDS011;37915;53.254;6.598;2023-04-25T13:11:17;8.32;;;2.08;;
51883;SDS011;37915;53.254;6.598;2023-04-25T13:13:43;5.68;;;1.52;;
51883;SDS011;37915;53.254;6.598;2023-04-25T13:16:09;4.22;;;1.35;;
51883;SDS011;37915;53.254;6.598;2023-04-25T13:18:36;11.73;;;2.03;;
51883;SDS011;37915;53.254;6.598;2023-04-25T13:21:05;8.80;;;1.98;;
51883;SDS011;37915;53.254;6.598;2023-04-25T13:23:31;8.13;;;2.13;;
51883;SDS011;37915;53.254;6.598;2023-04-25T13:26:00;7.35;;;2.00;;
51883;SDS011;37915;53.254;6.598;2023-04-25T13:28:27;7.57;;;2.25;;
51883;SDS011;37915;53.254;6.598;2023-04-25T13:30:56;10.07;;;2.00;;
51883;SDS011;37915;53.254;6.598;2023-04-25T13:33:21;7.93;;;1.95;;
51883;SDS011;37915;53.254;6.598;2023-04-25T13:35:48;7.90;;;2.17;;
51883;SDS011;37915;53.254;6.598;2023-04-25T13:38:19;4.13;;;1.38;;
51883;SDS011;37915;53.254;6.598;2023-04-25T13:40:49;6.68;;;1.90;;
51883;SDS011;37915;53.254;6.598;2023-04-25T13:43:17;6.18;;;1.70;;
51883;SDS011;37915;53.254;6.598;2023-04-25T13:45:47;8.23;;;1.77;;
51883;SDS011;37915;53.254;6.598;2023-04-25T13:48:13;6.22;;;1.80;;
51883;SDS011;37915;53.254;6.598;2023-04-25T13:50:39;7.40;;;1.40;;
51883;SDS011;37915;53.254;6.598;2023-04-25T13:53:05;6.20;;;1.83;;
51883;SDS011;37915;53.254;6.598;2023-04-25T13:55:30;8.52;;;1.48;;
51883;SDS011;37915;53.254;6.598;2023-04-25T13:57:56;6.03;;;1.50;;
51883;SDS011;37915;53.254;6.598;2023-04-25T14:00:22;7.15;;;1.73;;
51883;SDS011;37915;53.254;6.598;2023-04-25T14:02:48;7.03;;;1.90;;
51883;SDS011;37915;53.254;6.598;2023-04-25T14:05:14;8.20;;;1.55;;
51883;SDS011;37915;53.254;6.598;2023-04-25T14:07:40;9.48;;;2.30;;
51883;SDS011;37915;53.254;6.598;2023-04-25T14:10:05;10.20;;;1.95;;
51883;SDS011;37915;53.254;6.598;2023-04-25T14:12:32;9.02;;;2.10;;
51883;SDS011;37915;53.254;6.598;2023-04-25T14:14:58;7.10;;;2.03;;
51883;SDS011;37915;53.254;6.598;2023-04-25T14:17:23;8.75;;;2.63;;
51883;SDS011;37915;53.254;6.598;2023-04-25T14:19:49;6.10;;;1.52;;
51883;SDS011;37915;53.254;6.598;2023-04-25T14:22:16;8.18;;;2.03;;
51883;SDS011;37915;53.254;6.598;2023-04-25T14:24:41;6.10;;;1.55;;
51883;SDS011;37915;53.254;6.598;2023-04-25T14:27:07;5.35;;;1.70;;
51883;SDS011;37915;53.254;6.598;2023-04-25T14:29:33;7.45;;;1.65;;
51883;SDS011;37915;53.254;6.598;2023-04-25T14:31:59;6.88;;;1.90;;
51883;SDS011;37915;53.254;6.598;2023-04-25T14:34:25;6.70;;;1.55;;
51883;SDS011;37915;53.254;6.598;2023-04-25T14:36:51;6.82;;;1.45;;
51883;SDS011;37915;53.254;6.598;2023-04-25T14:39:17;6.78;;;1.90;;
51883;SDS011;37915;53.254;6.598;2023-04-25T14:41:44;6.13;;;1.63;;
51883;SDS011;37915;53.254;6.598;2023-04-25T14:44:10;7.53;;;1.75;;
51883;SDS011;37915;53.254;6.598;2023-04-25T14:46:36;4.53;;;1.45;;
51883;SDS011;37915;53.254;6.598;2023-04-25T14:49:02;5.20;;;1.42;;
51883;SDS011;37915;53.254;6.598;2023-04-25T14:51:28;3.47;;;1.20;;
51883;SDS011;37915;53.254;6.598;2023-04-25T14:53:56;4.47;;;1.75;;
51883;SDS011;37915;53.254;6.598;2023-04-25T14:56:22;9.02;;;1.60;;